sensor_id;sensor_type;location;lat;lon;timestamp;P1;durP1;ratioP1;P2;durP2;ratioP2
11443;SDS011;5778;47.856;12.154;2022-08-19T00:00:31;6.33;;;5.93;;
11443;SDS011;5778;47.856;12.154;2022-08-19T00:03:00;6.60;;;6.00;;
11443;SDS011;5778;47.856;12.154;2022-08-19T00:05:27;6.27;;;5.87;;
11443;SDS011;5778;47.856;12.154;2022-08-19T00:07:54;6.77;;;6.20;;
11443;SDS011;5778;47.856;12.154;2022-08-19T00:10:21;6.00;;;5.60;;
11443;SDS011;5778;47.856;12.154;2022-08-19T00:12:49;6.30;;;5.70;;
11443;SDS011;5778;47.856;12.154;2022-08-19T00:15:18;6.40;;;5.90;;
11443;SDS011;5778;47.856;12.154;2022-08-19T00:17:47;6.40;;;5.90;;
11443;SDS011;5778;47.856;12.154;2022-08-19T00:20:18;6.53;;;5.93;;
11443;SDS011;5778;47.856;12.154;2022-08-19T00:22:47;6.17;;;5.67;;
11443;SDS011;5778;47.856;12.154;2022-08-19T00:25:15;5.60;;;5.17;;
11443;SDS011;5778;47.856;12.154;2022-08-19T00:27:43;6.23;;;5.83;;
11443;SDS011;5778;47.856;12.154;2022-08-19T00:30:10;6.30;;;5.80;;
11443;SDS011;5778;47.856;12.154;2022-08-19T00:32:38;6.57;;;5.97;;
11443;SDS011;5778;47.856;12.154;2022-08-19T00:35:05;6.00;;;5.60;;
11443;SDS011;5778;47.856;12.154;2022-08-19T00:37:36;6.53;;;6.03;;
11443;SDS011;5778;47.856;12.154;2022-08-19T00:40:04;6.10;;;5.70;;
11443;SDS011;5778;47.856;12.154;2022-08-19T00:42:32;6.53;;;6.03;;
11443;SDS011;5778;47.856;12.154;2022-08-19T00:44:59;6.60;;;6.10;;
11443;SDS011;5778;47.856;12.154;2022-08-19T00:47:26;6.70;;;6.20;;
11443;SDS011;5778;47.856;12.154;2022-08-19T00:49:54;6.87;;;6.37;;
11443;SDS011;5778;47.856;12.154;2022-08-19T00:52:24;7.13;;;6.63;;
11443;SDS011;5778;47.856;12.154;2022-08-19T00:54:57;8.13;;;6.53;;
11443;SDS011;5778;47.856;12.154;2022-08-19T00:57:26;6.97;;;6.40;;
11443;SDS011;5778;47.856;12.154;2022-08-19T00:59:57;7.00;;;6.47;;
11443;SDS011;5778;47.856;12.154;2022-08-19T01:02:25;6.63;;;6.13;;
11443;SDS011;5778;47.856;12.154;2022-08-19T01:04:53;6.77;;;6.27;;
11443;SDS011;5778;47.856;12.154;2022-08-19T01:07:21;6.83;;;6.23;;
11443;SDS011;5778;47.856;12.154;2022-08-19T01:09:48;6.63;;;6.10;;
11443;SDS011;5778;47.856;12.154;2022-08-19T01:12:17;7.40;;;6.80;;
11443;SDS011;5778;47.856;12.154;2022-08-19T01:14:44;6.40;;;5.90;;
11443;SDS011;5778;47.856;12.154;2022-08-19T01:17:12;7.00;;;6.40;;
11443;SDS011;5778;47.856;12.154;2022-08-19T01:19:41;6.27;;;5.80;;
11443;SDS011;5778;47.856;12.154;2022-08-19T01:22:11;5.13;;;4.83;;
11443;SDS011;5778;47.856;12.154;2022-08-19T01:24:45;5.67;;;5.27;;
11443;SDS011;5778;47.856;12.154;2022-08-19T01:27:12;6.50;;;6.00;;
11443;SDS011;5778;47.856;12.154;2022-08-19T01:29:39;6.67;;;6.17;;
11443;SDS011;5778;47.856;12.154;2022-08-19T01:32:09;7.00;;;6.40;;
11443;SDS011;5778;47.856;12.154;2022-08-19T01:34:38;6.90;;;6.40;;
11443;SDS011;5778;47.856;12.154;2022-08-19T01:37:06;6.77;;;6.20;;
11443;SDS011;5778;47.856;12.154;2022-08-19T01:39:37;7.30;;;6.70;;
11443;SDS011;5778;47.856;12.154;2022-08-19T01:42:07;5.37;;;4.97;;
11443;SDS011;5778;47.856;12.154;2022-08-19T01:44:36;6.03;;;5.53;;
11443;SDS011;5778;47.856;12.154;2022-08-19T01:47:04;5.50;;;5.10;;
11443;SDS011;5778;47.856;12.154;2022-08-19T01:49:31;6.40;;;5.87;;
11443;SDS011;5778;47.856;12.154;2022-08-19T01:51:59;6.33;;;5.83;;
11443;SDS011;5778;47.856;12.154;2022-08-19T01:54:27;5.20;;;4.83;;
11443;SDS011;5778;47.856;12.154;2022-08-19T01:56:55;4.50;;;4.20;;
11443;SDS011;5778;47.856;12.154;2022-08-19T01:59:28;3.87;;;3.67;;
11443;SDS011;5778;47.856;12.154;2022-08-19T02:01:57;3.50;;;3.20;;
11443;SDS011;5778;47.856;12.154;2022-08-19T02:04:24;3.50;;;3.20;;
11443;SDS011;5778;47.856;12.154;2022-08-19T02:06:52;2.17;;;2.07;;
11443;SDS011;5778;47.856;12.154;2022-08-19T02:09:19;1.80;;;1.70;;
11443;SDS011;5778;47.856;12.154;2022-08-19T02:11:46;1.93;;;1.83;;
11443;SDS011;5778;47.856;12.154;2022-08-19T02:14:13;1.50;;;1.43;;
11443;SDS011;5778;47.856;12.154;2022-08-19T02:16:42;1.70;;;1.60;;
11443;SDS011;5778;47.856;12.154;2022-08-19T02:19:09;2.33;;;1.43;;
11443;SDS011;5778;47.856;12.154;2022-08-19T02:21:37;1.93;;;1.63;;
11443;SDS011;5778;47.856;12.154;2022-08-19T02:24:04;1.67;;;1.60;;
11443;SDS011;5778;47.856;12.154;2022-08-19T02:26:31;2.13;;;1.83;;
11443;SDS011;5778;47.856;12.154;2022-08-19T02:28:58;1.97;;;1.87;;
11443;SDS011;5778;47.856;12.154;2022-08-19T02:31:26;1.77;;;1.67;;
11443;SDS011;5778;47.856;12.154;2022-08-19T02:33:55;1.60;;;1.60;;
11443;SDS011;5778;47.856;12.154;2022-08-19T02:36:24;1.70;;;1.60;;
11443;SDS011;5778;47.856;12.154;2022-08-19T02:38:52;1.80;;;1.70;;
11443;SDS011;5778;47.856;12.154;2022-08-19T02:41:19;1.83;;;1.73;;
11443;SDS011;5778;47.856;12.154;2022-08-19T02:43:48;2.00;;;1.90;;
11443;SDS011;5778;47.856;12.154;2022-08-19T02:46:16;1.80;;;1.70;;
11443;SDS011;5778;47.856;12.154;2022-08-19T02:48:46;1.70;;;1.60;;
11443;SDS011;5778;47.856;12.154;2022-08-19T02:51:19;1.70;;;1.60;;
11443;SDS011;5778;47.856;12.154;2022-08-19T02:53:47;1.77;;;1.67;;
11443;SDS011;5778;47.856;12.154;2022-08-19T02:56:16;1.67;;;1.60;;
11443;SDS011;5778;47.856;12.154;2022-08-19T02:58:44;1.57;;;1.47;;
11443;SDS011;5778;47.856;12.154;2022-08-19T03:01:11;1.63;;;1.57;;
11443;SDS011;5778;47.856;12.154;2022-08-19T03:03:47;1.87;;;1.77;;
11443;SDS011;5778;47.856;12.154;2022-08-19T03:06:15;2.10;;;2.00;;
11443;SDS011;5778;47.856;12.154;2022-08-19T03:08:45;1.80;;;1.70;;
11443;SDS011;5778;47.856;12.154;2022-08-19T03:11:14;1.90;;;1.80;;
11443;SDS011;5778;47.856;12.154;2022-08-19T03:13:43;1.70;;;1.60;;
11443;SDS011;5778;47.856;12.154;2022-08-19T03:16:10;1.63;;;1.53;;
11443;SDS011;5778;47.856;12.154;2022-08-19T03:18:38;1.70;;;1.60;;
11443;SDS011;5778;47.856;12.154;2022-08-19T03:21:06;2.43;;;1.60;;
11443;SDS011;5778;47.856;12.154;2022-08-19T03:23:33;1.60;;;1.50;;
11443;SDS011;5778;47.856;12.154;2022-08-19T03:26:04;1.80;;;1.70;;
11443;SDS011;5778;47.856;12.154;2022-08-19T03:28:32;1.43;;;1.43;;
11443;SDS011;5778;47.856;12.154;2022-08-19T03:31:01;1.67;;;1.57;;
11443;SDS011;5778;47.856;12.154;2022-08-19T03:33:30;1.60;;;1.60;;
11443;SDS011;5778;47.856;12.154;2022-08-19T03:36:05;1.60;;;1.60;;
11443;SDS011;5778;47.856;12.154;2022-08-19T03:38:35;1.70;;;1.60;;
11443;SDS011;5778;47.856;12.154;2022-08-19T03:41:06;1.67;;;1.57;;
11443;SDS011;5778;47.856;12.154;2022-08-19T03:43:36;2.07;;;1.67;;
11443;SDS011;5778;47.856;12.154;2022-08-19T03:46:05;1.63;;;1.53;;
11443;SDS011;5778;47.856;12.154;2022-08-19T03:48:34;1.70;;;1.60;;
11443;SDS011;5778;47.856;12.154;2022-08-19T03:51:02;1.60;;;1.50;;
11443;SDS011;5778;47.856;12.154;2022-08-19T03:53:30;1.87;;;1.43;;
11443;SDS011;5778;47.856;12.154;2022-08-19T03:55:59;1.30;;;1.30;;
11443;SDS011;5778;47.856;12.154;2022-08-19T03:58:29;2.10;;;1.40;;
11443;SDS011;5778;47.856;12.154;2022-08-19T04:00:56;1.40;;;1.30;;
11443;SDS011;5778;47.856;12.154;2022-08-19T04:03:23;1.43;;;1.40;;
11443;SDS011;5778;47.856;12.154;2022-08-19T04:05:51;1.40;;;1.30;;
11443;SDS011;5778;47.856;12.154;2022-08-19T04:08:19;1.53;;;1.40;;
11443;SDS011;5778;47.856;12.154;2022-08-19T04:10:48;1.37;;;1.30;;
11443;SDS011;5778;47.856;12.154;2022-08-19T04:13:16;1.70;;;1.60;;
11443;SDS011;5778;47.856;12.154;2022-08-19T04:15:45;1.20;;;1.20;;
11443;SDS011;5778;47.856;12.154;2022-08-19T04:18:13;1.40;;;1.40;;
11443;SDS011;5778;47.856;12.154;2022-08-19T04:20:41;1.70;;;1.60;;
11443;SDS011;5778;47.856;12.154;2022-08-19T04:23:09;1.87;;;1.77;;
11443;SDS011;5778;47.856;12.154;2022-08-19T04:25:37;1.60;;;1.50;;
11443;SDS011;5778;47.856;12.154;2022-08-19T04:28:06;1.50;;;1.50;;
11443;SDS011;5778;47.856;12.154;2022-08-19T04:30:38;1.63;;;1.53;;
11443;SDS011;5778;47.856;12.154;2022-08-19T04:33:08;1.50;;;1.40;;
11443;SDS011;5778;47.856;12.154;2022-08-19T04:35:37;1.37;;;1.37;;
11443;SDS011;5778;47.856;12.154;2022-08-19T04:38:05;1.10;;;1.10;;
11443;SDS011;5778;47.856;12.154;2022-08-19T04:40:33;1.30;;;1.30;;
11443;SDS011;5778;47.856;12.154;2022-08-19T04:43:18;1.67;;;1.57;;
11443;SDS011;5778;47.856;12.154;2022-08-19T04:45:46;1.93;;;1.83;;
11443;SDS011;5778;47.856;12.154;2022-08-19T04:48:15;1.77;;;1.67;;
11443;SDS011;5778;47.856;12.154;2022-08-19T04:50:43;1.77;;;1.67;;
11443;SDS011;5778;47.856;12.154;2022-08-19T04:53:10;1.80;;;1.70;;
11443;SDS011;5778;47.856;12.154;2022-08-19T04:55:38;1.77;;;1.67;;
11443;SDS011;5778;47.856;12.154;2022-08-19T04:58:06;1.70;;;1.60;;
11443;SDS011;5778;47.856;12.154;2022-08-19T05:00:33;2.03;;;1.93;;
11443;SDS011;5778;47.856;12.154;2022-08-19T05:03:03;2.00;;;1.90;;
11443;SDS011;5778;47.856;12.154;2022-08-19T05:05:32;1.63;;;1.53;;
11443;SDS011;5778;47.856;12.154;2022-08-19T05:07:59;1.77;;;1.67;;
11443;SDS011;5778;47.856;12.154;2022-08-19T05:10:26;1.67;;;1.50;;
11443;SDS011;5778;47.856;12.154;2022-08-19T05:12:55;2.23;;;1.73;;
11443;SDS011;5778;47.856;12.154;2022-08-19T05:15:22;1.87;;;1.77;;
11443;SDS011;5778;47.856;12.154;2022-08-19T05:17:50;2.27;;;1.83;;
11443;SDS011;5778;47.856;12.154;2022-08-19T05:20:36;2.00;;;1.90;;
11443;SDS011;5778;47.856;12.154;2022-08-19T05:23:21;2.37;;;2.20;;
11443;SDS011;5778;47.856;12.154;2022-08-19T05:25:48;2.10;;;2.00;;
11443;SDS011;5778;47.856;12.154;2022-08-19T05:28:16;2.90;;;2.10;;
11443;SDS011;5778;47.856;12.154;2022-08-19T05:30:44;2.27;;;2.17;;
11443;SDS011;5778;47.856;12.154;2022-08-19T05:33:11;3.77;;;2.40;;
11443;SDS011;5778;47.856;12.154;2022-08-19T05:35:40;2.90;;;2.10;;
11443;SDS011;5778;47.856;12.154;2022-08-19T05:38:09;2.60;;;2.40;;
11443;SDS011;5778;47.856;12.154;2022-08-19T05:40:38;3.80;;;1.90;;
11443;SDS011;5778;47.856;12.154;2022-08-19T05:43:07;3.63;;;3.17;;
11443;SDS011;5778;47.856;12.154;2022-08-19T05:45:42;4.23;;;2.93;;
11443;SDS011;5778;47.856;12.154;2022-08-19T05:48:10;2.93;;;2.63;;
11443;SDS011;5778;47.856;12.154;2022-08-19T05:50:40;2.90;;;2.70;;
11443;SDS011;5778;47.856;12.154;2022-08-19T05:53:08;2.67;;;2.47;;
11443;SDS011;5778;47.856;12.154;2022-08-19T05:55:40;2.57;;;2.37;;
11443;SDS011;5778;47.856;12.154;2022-08-19T05:58:07;2.80;;;2.40;;
11443;SDS011;5778;47.856;12.154;2022-08-19T06:00:34;2.30;;;2.20;;
11443;SDS011;5778;47.856;12.154;2022-08-19T06:03:02;2.90;;;2.70;;
11443;SDS011;5778;47.856;12.154;2022-08-19T06:05:41;2.60;;;2.40;;
11443;SDS011;5778;47.856;12.154;2022-08-19T06:08:08;3.23;;;2.93;;
11443;SDS011;5778;47.856;12.154;2022-08-19T06:10:36;4.33;;;2.77;;
11443;SDS011;5778;47.856;12.154;2022-08-19T06:13:03;2.93;;;2.73;;
11443;SDS011;5778;47.856;12.154;2022-08-19T06:15:30;5.80;;;2.80;;
11443;SDS011;5778;47.856;12.154;2022-08-19T06:17:57;3.73;;;3.43;;
11443;SDS011;5778;47.856;12.154;2022-08-19T06:23:28;3.10;;;2.90;;
11443;SDS011;5778;47.856;12.154;2022-08-19T06:29:01;2.77;;;2.63;;
11443;SDS011;5778;47.856;12.154;2022-08-19T06:31:31;3.33;;;2.80;;
11443;SDS011;5778;47.856;12.154;2022-08-19T06:33:59;2.97;;;2.80;;
11443;SDS011;5778;47.856;12.154;2022-08-19T06:36:36;3.43;;;2.87;;
11443;SDS011;5778;47.856;12.154;2022-08-19T06:39:06;3.83;;;3.43;;
11443;SDS011;5778;47.856;12.154;2022-08-19T06:41:35;4.03;;;3.57;;
11443;SDS011;5778;47.856;12.154;2022-08-19T06:44:03;4.30;;;4.00;;
11443;SDS011;5778;47.856;12.154;2022-08-19T06:46:37;4.20;;;3.87;;
11443;SDS011;5778;47.856;12.154;2022-08-19T06:49:08;4.10;;;3.80;;
11443;SDS011;5778;47.856;12.154;2022-08-19T06:51:40;4.23;;;3.83;;
11443;SDS011;5778;47.856;12.154;2022-08-19T06:54:08;5.43;;;4.67;;
11443;SDS011;5778;47.856;12.154;2022-08-19T06:56:45;3.73;;;3.43;;
11443;SDS011;5778;47.856;12.154;2022-08-19T06:59:13;4.10;;;3.80;;
11443;SDS011;5778;47.856;12.154;2022-08-19T07:01:42;3.73;;;3.43;;
11443;SDS011;5778;47.856;12.154;2022-08-19T07:04:11;3.63;;;3.33;;
11443;SDS011;5778;47.856;12.154;2022-08-19T07:09:35;3.23;;;2.90;;
11443;SDS011;5778;47.856;12.154;2022-08-19T07:12:04;2.90;;;2.70;;
11443;SDS011;5778;47.856;12.154;2022-08-19T07:14:33;4.20;;;3.20;;
11443;SDS011;5778;47.856;12.154;2022-08-19T07:17:03;3.00;;;2.80;;
11443;SDS011;5778;47.856;12.154;2022-08-19T07:19:46;3.13;;;2.93;;
11443;SDS011;5778;47.856;12.154;2022-08-19T07:22:17;3.03;;;2.83;;
11443;SDS011;5778;47.856;12.154;2022-08-19T07:24:47;2.90;;;2.70;;
11443;SDS011;5778;47.856;12.154;2022-08-19T07:27:20;3.30;;;3.10;;
11443;SDS011;5778;47.856;12.154;2022-08-19T07:29:47;4.23;;;3.80;;
11443;SDS011;5778;47.856;12.154;2022-08-19T07:32:15;4.10;;;3.67;;
11443;SDS011;5778;47.856;12.154;2022-08-19T07:34:42;4.47;;;4.10;;
11443;SDS011;5778;47.856;12.154;2022-08-19T07:37:19;4.70;;;4.30;;
11443;SDS011;5778;47.856;12.154;2022-08-19T07:39:46;5.20;;;4.80;;
11443;SDS011;5778;47.856;12.154;2022-08-19T07:42:14;5.17;;;4.77;;
11443;SDS011;5778;47.856;12.154;2022-08-19T07:44:45;5.30;;;4.80;;
11443;SDS011;5778;47.856;12.154;2022-08-19T07:47:25;4.60;;;4.30;;
11443;SDS011;5778;47.856;12.154;2022-08-19T07:52:41;4.67;;;4.27;;
11443;SDS011;5778;47.856;12.154;2022-08-19T07:55:10;4.50;;;4.20;;
11443;SDS011;5778;47.856;12.154;2022-08-19T07:57:37;4.70;;;4.40;;
11443;SDS011;5778;47.856;12.154;2022-08-19T08:00:06;4.43;;;4.13;;
11443;SDS011;5778;47.856;12.154;2022-08-19T08:02:37;5.17;;;4.77;;
11443;SDS011;5778;47.856;12.154;2022-08-19T08:05:07;4.70;;;4.20;;
11443;SDS011;5778;47.856;12.154;2022-08-19T08:07:54;4.10;;;3.80;;
11443;SDS011;5778;47.856;12.154;2022-08-19T08:10:38;5.47;;;5.07;;
11443;SDS011;5778;47.856;12.154;2022-08-19T08:13:05;4.43;;;4.13;;
11443;SDS011;5778;47.856;12.154;2022-08-19T08:15:34;4.27;;;3.97;;
11443;SDS011;5778;47.856;12.154;2022-08-19T08:18:03;4.43;;;4.17;;
11443;SDS011;5778;47.856;12.154;2022-08-19T08:20:41;4.77;;;4.47;;
11443;SDS011;5778;47.856;12.154;2022-08-19T08:23:10;4.40;;;4.10;;
11443;SDS011;5778;47.856;12.154;2022-08-19T08:28:41;4.27;;;3.97;;
11443;SDS011;5778;47.856;12.154;2022-08-19T08:31:08;4.10;;;3.90;;
11443;SDS011;5778;47.856;12.154;2022-08-19T08:33:36;4.40;;;4.10;;
11443;SDS011;5778;47.856;12.154;2022-08-19T08:36:16;4.47;;;4.17;;
11443;SDS011;5778;47.856;12.154;2022-08-19T08:38:45;4.87;;;4.23;;
11443;SDS011;5778;47.856;12.154;2022-08-19T08:41:16;5.57;;;5.17;;
11443;SDS011;5778;47.856;12.154;2022-08-19T08:43:49;5.87;;;4.73;;
11443;SDS011;5778;47.856;12.154;2022-08-19T08:46:34;6.23;;;5.10;;
11443;SDS011;5778;47.856;12.154;2022-08-19T08:49:21;5.60;;;5.10;;
11443;SDS011;5778;47.856;12.154;2022-08-19T08:51:58;5.23;;;4.73;;
11443;SDS011;5778;47.856;12.154;2022-08-19T08:54:32;4.83;;;4.43;;
11443;SDS011;5778;47.856;12.154;2022-08-19T09:00:15;4.70;;;4.30;;
11443;SDS011;5778;47.856;12.154;2022-08-19T09:02:46;5.13;;;4.63;;
11443;SDS011;5778;47.856;12.154;2022-08-19T09:05:16;4.40;;;4.03;;
11443;SDS011;5778;47.856;12.154;2022-08-19T09:08:00;5.40;;;4.20;;
11443;SDS011;5778;47.856;12.154;2022-08-19T09:10:33;5.30;;;4.70;;
11443;SDS011;5778;47.856;12.154;2022-08-19T09:13:08;5.23;;;4.83;;
11443;SDS011;5778;47.856;12.154;2022-08-19T09:15:47;5.37;;;4.87;;
11443;SDS011;5778;47.856;12.154;2022-08-19T09:18:20;4.80;;;4.40;;
11443;SDS011;5778;47.856;12.154;2022-08-19T09:20:47;5.07;;;4.60;;
11443;SDS011;5778;47.856;12.154;2022-08-19T09:23:17;5.10;;;4.70;;
11443;SDS011;5778;47.856;12.154;2022-08-19T09:28:59;5.03;;;4.63;;
11443;SDS011;5778;47.856;12.154;2022-08-19T09:31:28;5.23;;;4.73;;
11443;SDS011;5778;47.856;12.154;2022-08-19T09:33:57;4.50;;;4.10;;
11443;SDS011;5778;47.856;12.154;2022-08-19T09:39:25;4.90;;;4.50;;
11443;SDS011;5778;47.856;12.154;2022-08-19T09:41:52;5.13;;;4.73;;
11443;SDS011;5778;47.856;12.154;2022-08-19T09:44:21;4.47;;;4.10;;
11443;SDS011;5778;47.856;12.154;2022-08-19T09:46:50;4.77;;;4.33;;
11443;SDS011;5778;47.856;12.154;2022-08-19T09:49:33;5.07;;;4.67;;
11443;SDS011;5778;47.856;12.154;2022-08-19T09:52:01;3.97;;;3.63;;
11443;SDS011;5778;47.856;12.154;2022-08-19T09:54:28;4.80;;;4.40;;
11443;SDS011;5778;47.856;12.154;2022-08-19T09:57:01;4.73;;;4.43;;
11443;SDS011;5778;47.856;12.154;2022-08-19T09:59:29;4.27;;;3.90;;
11443;SDS011;5778;47.856;12.154;2022-08-19T10:01:56;4.47;;;4.17;;
11443;SDS011;5778;47.856;12.154;2022-08-19T10:04:23;4.97;;;4.50;;
11443;SDS011;5778;47.856;12.154;2022-08-19T10:07:11;4.40;;;4.10;;
11443;SDS011;5778;47.856;12.154;2022-08-19T10:09:39;3.50;;;3.30;;
11443;SDS011;5778;47.856;12.154;2022-08-19T10:12:08;3.73;;;3.53;;
11443;SDS011;5778;47.856;12.154;2022-08-19T10:14:38;4.27;;;3.87;;
11443;SDS011;5778;47.856;12.154;2022-08-19T10:17:10;4.20;;;3.90;;
11443;SDS011;5778;47.856;12.154;2022-08-19T10:19:38;3.63;;;3.43;;
11443;SDS011;5778;47.856;12.154;2022-08-19T10:22:06;4.37;;;4.07;;
11443;SDS011;5778;47.856;12.154;2022-08-19T10:24:33;3.80;;;3.50;;
11443;SDS011;5778;47.856;12.154;2022-08-19T10:27:11;4.03;;;3.63;;
11443;SDS011;5778;47.856;12.154;2022-08-19T10:29:40;4.57;;;4.17;;
11443;SDS011;5778;47.856;12.154;2022-08-19T10:32:08;4.53;;;3.67;;
11443;SDS011;5778;47.856;12.154;2022-08-19T10:34:35;3.70;;;3.50;;
11443;SDS011;5778;47.856;12.154;2022-08-19T10:37:18;4.10;;;3.70;;
11443;SDS011;5778;47.856;12.154;2022-08-19T10:39:46;4.00;;;3.70;;
11443;SDS011;5778;47.856;12.154;2022-08-19T10:42:14;4.13;;;3.83;;
11443;SDS011;5778;47.856;12.154;2022-08-19T10:44:43;4.13;;;3.83;;
11443;SDS011;5778;47.856;12.154;2022-08-19T10:50:12;4.23;;;3.97;;
11443;SDS011;5778;47.856;12.154;2022-08-19T10:53:06;4.67;;;4.13;;
11443;SDS011;5778;47.856;12.154;2022-08-19T10:55:44;4.90;;;4.47;;
11443;SDS011;5778;47.856;12.154;2022-08-19T10:58:29;4.33;;;4.03;;
11443;SDS011;5778;47.856;12.154;2022-08-19T11:00:58;4.73;;;4.33;;
11443;SDS011;5778;47.856;12.154;2022-08-19T11:03:25;3.50;;;3.30;;
11443;SDS011;5778;47.856;12.154;2022-08-19T11:09:13;3.50;;;3.30;;
11443;SDS011;5778;47.856;12.154;2022-08-19T11:11:41;3.40;;;3.13;;
11443;SDS011;5778;47.856;12.154;2022-08-19T11:14:08;3.90;;;3.63;;
11443;SDS011;5778;47.856;12.154;2022-08-19T11:16:44;4.10;;;3.80;;
11443;SDS011;5778;47.856;12.154;2022-08-19T11:19:11;5.23;;;4.63;;
11443;SDS011;5778;47.856;12.154;2022-08-19T11:21:42;4.17;;;3.80;;
11443;SDS011;5778;47.856;12.154;2022-08-19T11:24:11;3.17;;;2.97;;
11443;SDS011;5778;47.856;12.154;2022-08-19T11:29:49;3.47;;;3.27;;
11443;SDS011;5778;47.856;12.154;2022-08-19T11:32:19;3.00;;;2.80;;
11443;SDS011;5778;47.856;12.154;2022-08-19T11:34:46;3.33;;;3.07;;
11443;SDS011;5778;47.856;12.154;2022-08-19T11:40:04;3.90;;;3.57;;
11443;SDS011;5778;47.856;12.154;2022-08-19T11:42:32;4.03;;;3.77;;
11443;SDS011;5778;47.856;12.154;2022-08-19T11:45:22;4.60;;;4.30;;
11443;SDS011;5778;47.856;12.154;2022-08-19T11:47:51;4.90;;;4.50;;
11443;SDS011;5778;47.856;12.154;2022-08-19T11:53:21;4.97;;;4.57;;
11443;SDS011;5778;47.856;12.154;2022-08-19T11:55:54;4.80;;;4.50;;
11443;SDS011;5778;47.856;12.154;2022-08-19T11:58:22;5.70;;;5.30;;
11443;SDS011;5778;47.856;12.154;2022-08-19T12:00:50;5.77;;;5.27;;
11443;SDS011;5778;47.856;12.154;2022-08-19T12:03:19;5.57;;;5.07;;
11443;SDS011;5778;47.856;12.154;2022-08-19T12:05:58;5.30;;;4.90;;
11443;SDS011;5778;47.856;12.154;2022-08-19T12:08:30;4.80;;;4.40;;
11443;SDS011;5778;47.856;12.154;2022-08-19T12:10:58;5.03;;;4.63;;
11443;SDS011;5778;47.856;12.154;2022-08-19T12:13:26;4.93;;;4.60;;
11443;SDS011;5778;47.856;12.154;2022-08-19T12:22:09;4.87;;;4.53;;
11443;SDS011;5778;47.856;12.154;2022-08-19T12:24:35;4.77;;;4.47;;
11443;SDS011;5778;47.856;12.154;2022-08-19T12:27:05;5.20;;;4.80;;
11443;SDS011;5778;47.856;12.154;2022-08-19T12:29:32;4.63;;;4.23;;
11443;SDS011;5778;47.856;12.154;2022-08-19T12:31:59;4.47;;;4.17;;
11443;SDS011;5778;47.856;12.154;2022-08-19T12:34:27;3.93;;;3.63;;
11443;SDS011;5778;47.856;12.154;2022-08-19T12:37:14;4.40;;;4.10;;
11443;SDS011;5778;47.856;12.154;2022-08-19T12:39:42;4.90;;;4.50;;
11443;SDS011;5778;47.856;12.154;2022-08-19T12:42:10;4.80;;;4.50;;
11443;SDS011;5778;47.856;12.154;2022-08-19T12:44:39;4.90;;;4.50;;
11443;SDS011;5778;47.856;12.154;2022-08-19T12:47:08;4.37;;;4.07;;
11443;SDS011;5778;47.856;12.154;2022-08-19T12:49:46;4.00;;;3.70;;
11443;SDS011;5778;47.856;12.154;2022-08-19T12:52:15;4.00;;;3.70;;
11443;SDS011;5778;47.856;12.154;2022-08-19T12:54:46;3.73;;;3.43;;
11443;SDS011;5778;47.856;12.154;2022-08-19T12:57:27;3.40;;;3.20;;
11443;SDS011;5778;47.856;12.154;2022-08-19T12:59:58;3.00;;;2.80;;
11443;SDS011;5778;47.856;12.154;2022-08-19T13:02:28;2.90;;;2.70;;
11443;SDS011;5778;47.856;12.154;2022-08-19T13:04:57;2.87;;;2.67;;
11443;SDS011;5778;47.856;12.154;2022-08-19T13:10:32;2.40;;;2.30;;
11443;SDS011;5778;47.856;12.154;2022-08-19T13:13:01;2.40;;;2.30;;
11443;SDS011;5778;47.856;12.154;2022-08-19T13:21:50;2.00;;;1.90;;
11443;SDS011;5778;47.856;12.154;2022-08-19T13:24:20;2.33;;;2.23;;
11443;SDS011;5778;47.856;12.154;2022-08-19T13:26:49;3.00;;;2.20;;
11443;SDS011;5778;47.856;12.154;2022-08-19T13:29:16;2.40;;;2.00;;
11443;SDS011;5778;47.856;12.154;2022-08-19T13:32:00;2.00;;;1.90;;
11443;SDS011;5778;47.856;12.154;2022-08-19T13:34:44;2.23;;;2.00;;
11443;SDS011;5778;47.856;12.154;2022-08-19T13:40:36;2.40;;;2.30;;
11443;SDS011;5778;47.856;12.154;2022-08-19T13:43:04;2.80;;;2.60;;
11443;SDS011;5778;47.856;12.154;2022-08-19T13:48:45;2.70;;;2.53;;
11443;SDS011;5778;47.856;12.154;2022-08-19T13:51:13;2.23;;;2.07;;
11443;SDS011;5778;47.856;12.154;2022-08-19T13:53:41;2.20;;;2.10;;
11443;SDS011;5778;47.856;12.154;2022-08-19T13:59:19;2.20;;;2.10;;
11443;SDS011;5778;47.856;12.154;2022-08-19T14:01:46;2.07;;;1.97;;
11443;SDS011;5778;47.856;12.154;2022-08-19T14:04:13;2.00;;;1.90;;
11443;SDS011;5778;47.856;12.154;2022-08-19T14:06:58;2.20;;;2.10;;
11443;SDS011;5778;47.856;12.154;2022-08-19T14:09:25;2.20;;;2.10;;
11443;SDS011;5778;47.856;12.154;2022-08-19T14:11:52;2.40;;;2.30;;
11443;SDS011;5778;47.856;12.154;2022-08-19T14:14:22;2.10;;;2.00;;
11443;SDS011;5778;47.856;12.154;2022-08-19T14:17:06;2.33;;;2.20;;
11443;SDS011;5778;47.856;12.154;2022-08-19T14:19:50;2.90;;;2.70;;
11443;SDS011;5778;47.856;12.154;2022-08-19T14:22:23;2.90;;;2.70;;
11443;SDS011;5778;47.856;12.154;2022-08-19T14:24:50;2.50;;;2.40;;
11443;SDS011;5778;47.856;12.154;2022-08-19T14:27:32;2.77;;;2.57;;
11443;SDS011;5778;47.856;12.154;2022-08-19T14:30:01;2.70;;;2.60;;
11443;SDS011;5778;47.856;12.154;2022-08-19T14:32:28;2.40;;;2.30;;
11443;SDS011;5778;47.856;12.154;2022-08-19T14:34:55;2.37;;;2.27;;
11443;SDS011;5778;47.856;12.154;2022-08-19T14:37:24;2.30;;;2.20;;
11443;SDS011;5778;47.856;12.154;2022-08-19T14:39:51;2.67;;;2.50;;
11443;SDS011;5778;47.856;12.154;2022-08-19T14:42:18;2.50;;;2.40;;
11443;SDS011;5778;47.856;12.154;2022-08-19T14:44:46;3.10;;;2.90;;
11443;SDS011;5778;47.856;12.154;2022-08-19T14:47:20;2.70;;;2.50;;
11443;SDS011;5778;47.856;12.154;2022-08-19T14:52:40;2.53;;;2.40;;
11443;SDS011;5778;47.856;12.154;2022-08-19T14:55:08;2.70;;;2.50;;
11443;SDS011;5778;47.856;12.154;2022-08-19T14:57:36;2.30;;;2.17;;
11443;SDS011;5778;47.856;12.154;2022-08-19T15:00:04;2.40;;;2.10;;
11443;SDS011;5778;47.856;12.154;2022-08-19T15:02:34;2.20;;;2.10;;
11443;SDS011;5778;47.856;12.154;2022-08-19T15:05:01;2.00;;;1.90;;
11443;SDS011;5778;47.856;12.154;2022-08-19T15:07:29;1.90;;;1.80;;
11443;SDS011;5778;47.856;12.154;2022-08-19T15:09:56;2.10;;;2.00;;
11443;SDS011;5778;47.856;12.154;2022-08-19T15:12:23;2.00;;;1.90;;
11443;SDS011;5778;47.856;12.154;2022-08-19T15:14:51;1.53;;;1.43;;
11443;SDS011;5778;47.856;12.154;2022-08-19T15:20:42;1.30;;;1.30;;
11443;SDS011;5778;47.856;12.154;2022-08-19T15:23:09;1.77;;;1.67;;
11443;SDS011;5778;47.856;12.154;2022-08-19T15:28:40;1.23;;;1.03;;
11443;SDS011;5778;47.856;12.154;2022-08-19T15:31:08;1.70;;;1.07;;
11443;SDS011;5778;47.856;12.154;2022-08-19T15:33:37;1.23;;;1.10;;
11443;SDS011;5778;47.856;12.154;2022-08-19T15:36:11;2.17;;;1.10;;
11443;SDS011;5778;47.856;12.154;2022-08-19T15:38:38;1.40;;;1.30;;
11443;SDS011;5778;47.856;12.154;2022-08-19T15:41:15;1.17;;;1.17;;
11443;SDS011;5778;47.856;12.154;2022-08-19T15:43:50;1.20;;;1.20;;
11443;SDS011;5778;47.856;12.154;2022-08-19T15:49:18;1.40;;;1.23;;
11443;SDS011;5778;47.856;12.154;2022-08-19T15:51:48;0.93;;;0.93;;
11443;SDS011;5778;47.856;12.154;2022-08-19T15:54:18;1.13;;;1.03;;
11443;SDS011;5778;47.856;12.154;2022-08-19T15:56:50;1.27;;;1.17;;
11443;SDS011;5778;47.856;12.154;2022-08-19T15:59:35;1.10;;;1.00;;
11443;SDS011;5778;47.856;12.154;2022-08-19T16:02:22;1.60;;;1.50;;
11443;SDS011;5778;47.856;12.154;2022-08-19T16:05:08;1.83;;;1.73;;
11443;SDS011;5778;47.856;12.154;2022-08-19T16:07:56;2.03;;;1.93;;
11443;SDS011;5778;47.856;12.154;2022-08-19T16:10:24;1.80;;;1.70;;
11443;SDS011;5778;47.856;12.154;2022-08-19T16:12:51;2.30;;;2.10;;
11443;SDS011;5778;47.856;12.154;2022-08-19T16:18:41;2.67;;;2.57;;
11443;SDS011;5778;47.856;12.154;2022-08-19T16:21:08;2.93;;;2.20;;
11443;SDS011;5778;47.856;12.154;2022-08-19T16:23:37;2.70;;;2.50;;
11443;SDS011;5778;47.856;12.154;2022-08-19T16:26:22;2.67;;;2.37;;